Moapa Valley, Nevada Weather observations

Data are for 10 minute period ending at time listed.
 Day   Time   Solar   Ave.   Ave.  Ave.  Vector  Max.   Baro.   Total    
  of    of     Rad.   Air    Rel.  Wind   Wind   Wind  Press.  Precip.   
Year   Day            Temp.  Hum.  Speed  Dir.   Gust                    
2016   (PST)  Kw/m2    F      %     mph   deg.    mph    mb.     in.     
-------------------------------------------------------------------------
 239    0:00   0.00   83.9    31    8.5     2    13.1   962.9    0.00 
 239    0:10   0.00   83.6    32    8.3     2    16.0   962.9    0.00 
 239    0:20   0.00   83.4    32    8.6     5    12.4   963.0    0.00 
 239    0:30   0.00   83.3    32    9.1     5    14.9   963.0    0.00 
 239    0:40   0.00   83.1    33    7.8    11    12.8   963.1    0.00 
 239    0:50   0.00   83.0    33    8.6     4    13.8   963.2    0.00 
 239    1:00   0.00   82.8    33    8.2    10    13.8   963.3    0.00 
 239    1:10   0.00   82.5    34    8.9    13    14.6   963.3    0.00 
 239    1:20   0.00   82.4    34    8.5    10    15.3   963.3    0.00 
 239    1:30   0.00   82.1    34    7.4     5    12.4   963.4    0.00 
 239    1:40   0.00   81.7    35    6.4    10    10.3   963.5    0.00 
 239    1:50   0.00   81.4    35    6.4    10    11.3   963.6    0.00 
 239    2:00   0.00   81.3    35    6.8     6    10.6   963.7    0.00 
 239    2:10   0.00   80.9    36    7.0     5    12.4   963.7    0.00 
 239    2:20   0.00   80.9    36    8.0     2    13.5   963.8    0.00 
 239    2:30   0.00   80.7    36    7.4     3    11.3   963.9    0.00 
 239    2:40   0.00   80.4    38    5.9    10     9.9   964.1    0.00 
 239    2:50   0.00   80.4    38    7.2     6    11.7   964.2    0.00 
 239    3:00   0.00   80.5    38    6.8     8    11.0   964.2    0.00 
 239    3:10   0.00   80.0    39    6.1   359    11.3   964.2    0.00 
 239    3:20   0.00   80.2    39    6.9     7    11.0   964.3    0.00 
 239    3:30   0.00   79.9    40    6.9     9    10.6   964.4    0.00 
 239    3:40   0.00   79.5    40    6.4     7    12.4   964.5    0.00 
 239    3:50   0.00   79.5    40    6.7     2     9.9   964.5    0.00 
 239    4:00   0.00   79.2    41    5.3    11     8.1   964.6    0.00 
 239    4:10   0.00   79.1    41    5.9     5     9.2   964.7    0.00 
 239    4:20   0.00   78.7    42    4.7     2     8.1   964.8    0.00 
 239    4:30   0.00   78.3    43    3.6   358     6.0   965.0    0.00 
 239    4:40   0.00   78.2    43    3.2     6     6.3   965.1    0.00 
 239    4:50   0.00   78.0    43    3.2   338     7.1   965.2    0.00 
 239    5:00   0.00   77.8    44    2.7   292     5.6   965.4    0.00 
 239    5:10   0.00   76.6    46    2.1   261     3.8   965.6    0.00 
 239    5:20   0.01   75.9    47    2.7   260     4.6   965.7    0.00 
 239    5:30   0.03   76.0    47    2.7   265     4.2   965.8    0.00 
 239    5:40   0.06   76.8    46    2.4   270     3.8   965.9    0.00 
 239    5:50   0.09   77.2    47    1.7   299     3.1   966.0    0.00 
 239    6:00   0.11   78.1    47    0.5   251     2.1   966.0    0.00 
 239    6:10   0.12   78.7    46    2.5   262     3.5   966.1    0.00 
 239    6:20   0.13   79.3    44    3.2   268     4.9   966.3    0.00 
 239    6:30   0.22   80.4    44    2.8   280     4.6   966.3    0.00 
 239    6:40   0.26   81.2    43    2.3   292     4.2   966.4    0.00 
 239    6:50   0.30   82.0    44    2.4   337     5.3   966.5    0.00 
 239    7:00   0.34   82.8    40    2.6     6     7.1   966.5    0.00 
 239    7:10   0.38   82.8    40    5.1    30     9.6   966.5    0.00 
 239    7:20   0.42   82.7    40    5.9    35     8.5   966.5    0.00 
 239    7:30   0.46   83.2    40    5.8    34     8.1   966.5    0.00 
 239    7:40   0.50   83.8    39    5.7    38     9.2   966.5    0.00 
 239    7:50   0.54   84.2    38    5.6    32     8.1   966.5    0.00 
 239    8:00   0.58   84.6    38    5.4    32     8.5   966.6    0.00 
 239    8:10   0.62   85.7    37    3.8    38     6.3   966.7    0.00 
 239    8:20   0.65   86.8    34    3.1    24     5.6   966.7    0.00 
 239    8:30   0.69   87.1    34    3.0    59     6.0   966.7    0.00 
 239    8:40   0.73   88.4    32    1.8   319     3.5   966.8    0.00 
 239    8:50   0.76   88.7    33    2.0   350     3.5   966.8    0.00 
 239    9:00   0.80   88.9    32    2.6   195     5.6   966.6    0.00 
 239    9:10   0.83   90.0    35    1.3   134     2.8   966.6    0.00 
 239    9:20   0.86   89.2    35    3.6   128     6.3   966.5    0.00 
 239    9:30   0.89   89.0    32    3.5    79     7.1   966.5    0.00 
 239    9:40   0.91   89.3    34    2.9   113     6.0   966.5    0.00 
 239    9:50   0.93   89.7    33    3.7    80     6.7   966.4    0.00 
 239   10:00   0.95   90.2    32    2.9   118     9.2   966.3    0.00 
 239   10:10   0.97   89.6    35    4.0   132     8.1   966.3    0.00 
 239   10:20   0.99   89.6    34    5.1   106    11.0   966.1    0.00 
 239   10:30   1.01   90.1    36    3.4   114     6.3   966.1    0.00 
 239   10:40   1.02   91.0    32    3.4   101     6.0   965.9    0.00 
 239   10:50   1.03   91.3    32    5.4   160    12.1   965.7    0.00 
 239   11:00   1.04   91.0    32    7.3   178    11.0   965.5    0.00 
 239   11:10   1.05   91.6    31    6.7   158    12.1   965.5    0.00 
 239   11:20   1.06   91.7    30    6.7   171    13.1   965.4    0.00 
 239   11:30   1.06   92.0    30    6.6   182    12.1   965.2    0.00 
 239   11:40   1.06   92.6    30    5.4   166     8.8   965.1    0.00 
 239   11:50   1.06   92.7    30    5.9   157     9.9   964.9    0.00 
 239   12:00   1.06   93.0    29    5.9   132    17.4   964.7    0.00 
 239   12:10   1.06   93.0    29    6.6   144    11.0   964.5    0.00 
 239   12:20   1.05   93.3    29    5.9   127    12.1   964.3    0.00 
 239   12:30   1.04   93.6    28    7.8   129    14.6   964.1    0.00 
 239   12:40   1.04   94.0    28    6.6   135    14.6   964.0    0.00 
 239   12:50   1.03   94.2    27    5.9   131    11.0   963.8    0.00 
 239   13:00   1.02   94.0    27    7.4   120    12.4   963.6    0.00 
 239   13:10   1.01   94.3    25    8.4   125    12.4   963.4    0.00 
 239   13:20   1.01   94.5    26    6.2   108    13.1   963.1    0.00 
 239   13:30   0.99   94.5    25    6.9   143    10.6   962.9    0.00 
 239   13:40   0.96   94.5    26    7.9   133    12.4   962.7    0.00 
 239   13:50   0.92   94.9    26    5.1   123    13.1   962.4    0.00 
 239   14:00   0.90   94.9    26    5.9   116    12.1   962.2    0.00 
 239   14:10   0.89   95.3    22    6.2   175    10.3   962.1    0.00 
 239   14:20   0.69   96.6    21    4.4   186     7.4   962.0    0.00 
 239   14:30   0.72   95.4    24    3.1   129     5.3   961.8    0.00 
 239   14:40   0.87   96.1    22    6.5   178    13.1   961.8    0.00 
 239   14:50   0.84   96.0    23    4.5   121     9.9   961.8    0.00 
 239   15:00   0.77   95.3    25    5.7   106     9.2   961.7    0.00 
 239   15:10   0.73   95.9    21    5.8   152     8.8   961.6    0.00 
 239   15:20   0.70   96.3    20    5.4   186     9.6   961.6    0.00 
 239   15:30   0.59   96.8    21    4.6   176     7.8   961.4    0.00 
 239   15:40   0.41   95.4    22    4.5   162     8.8   961.3    0.00 
 239   15:50   0.49   95.3    20    4.5   182     7.1   961.3    0.00 
 239   16:00   0.38   95.4    19    4.8   176     8.5   961.4    0.00 
 239   16:10   0.29   94.3    22    3.3   178     6.7   961.4    0.00 
 239   16:20   0.48   95.3    22    3.6   173     7.8   961.4    0.00 
 239   16:30   0.45   94.9    23    5.7   144    11.0   961.3    0.00 
 239   16:40   0.40   94.6    24    4.6   160     7.8   961.2    0.00 
 239   16:50   0.35   94.8    22    5.9   169    12.8   961.2    0.00 
 239   17:00   0.31   94.6    22    6.6   166    10.3   961.2    0.00 
 239   17:10   0.17   94.1    22    5.5   192     8.8   961.1    0.00 
 239   17:20   0.09   93.3    23    4.6   188     7.4   961.1    0.00 
 239   17:30   0.06   93.1    23    5.5   198     9.6   961.1    0.00 
 239   17:40   0.05   93.4    22    7.0   202    11.7   961.2    0.00 
 239   17:50   0.04   93.2    22    6.1   190    10.6   961.3    0.00 
 239   18:00   0.02   91.7    25    4.5   132     7.1   961.5    0.00 
 239   18:10   0.01   90.7    27    4.7   143     9.6   961.7    0.00 
 239   18:20   0.00   92.1    25    7.0   155    11.7   961.7    0.00 
 239   18:30   0.00   92.2    24    6.7   160     9.9   961.8    0.00 
 239   18:40   0.00   91.8    25    5.8   167    11.0   961.9    0.00 
 239   18:50   0.00   91.6    25    5.7   175     9.9   962.0    0.00 
 239   19:00   0.00   90.7    27    5.0   180     9.6   962.1    0.00 
 239   19:10   0.00   90.5    28    6.0   168    10.3   962.2    0.00 
 239   19:20   0.00   90.3    28    6.3   169    11.3   962.3    0.00 
 239   19:30   0.00   90.4    28    6.3   171     9.2   962.3    0.00 
 239   19:40   0.00   90.4    28    7.3   179    12.4   962.4    0.00 
 239   19:50   0.00   90.4    28    6.2   175    10.3   962.6    0.00 
 239   20:00   0.00   89.8    28    4.3   172     8.5   962.7    0.00 
 239   20:10   0.00   89.1    29    3.9   144     8.1   962.9    0.00 
 239   20:20   0.00   89.3    29    4.5   180     6.7   963.0    0.00 
 239   20:30   0.00   89.1    30    3.2   182     7.8   963.1    0.00 
 239   20:40   0.00   88.3    31    3.1   169     5.3   963.2    0.00 
 239   20:50   0.00   87.8    32    2.7   122     4.6   963.3    0.00 
 239   21:00   0.00   86.4    34    4.7   115     7.4   963.4    0.00 
 239   21:10   0.00   86.3    35    4.2   110     6.7   963.6    0.00 
 239   21:20   0.00   85.7    36    5.1   110     7.4   963.8    0.00 

Return to Moapa Valley graphs page.


Western Regional Climate Center,wrcc@dri.edu